sensor_id;sensor_type;location;lat;lon;timestamp;P1;durP1;ratioP1;P2;durP2;ratioP2
22131;SDS011;11232;51.748;19.390;2024-02-15T00:00:27;45.03;;;17.40;;
22131;SDS011;11232;51.748;19.390;2024-02-15T00:02:53;40.87;;;17.57;;
22131;SDS011;11232;51.748;19.390;2024-02-15T00:05:19;35.73;;;15.97;;
22131;SDS011;11232;51.748;19.390;2024-02-15T00:07:44;39.23;;;17.70;;
22131;SDS011;11232;51.748;19.390;2024-02-15T00:10:14;36.53;;;16.53;;
22131;SDS011;11232;51.748;19.390;2024-02-15T00:12:40;31.97;;;15.87;;
22131;SDS011;11232;51.748;19.390;2024-02-15T00:15:05;33.67;;;17.13;;
22131;SDS011;11232;51.748;19.390;2024-02-15T00:17:31;36.80;;;17.17;;
22131;SDS011;11232;51.748;19.390;2024-02-15T00:20:00;42.80;;;16.70;;
22131;SDS011;11232;51.748;19.390;2024-02-15T00:22:29;36.03;;;16.23;;
22131;SDS011;11232;51.748;19.390;2024-02-15T00:24:56;41.17;;;16.83;;
22131;SDS011;11232;51.748;19.390;2024-02-15T00:27:23;40.60;;;16.47;;
22131;SDS011;11232;51.748;19.390;2024-02-15T00:29:48;34.53;;;16.97;;
22131;SDS011;11232;51.748;19.390;2024-02-15T00:32:14;39.03;;;16.37;;
22131;SDS011;11232;51.748;19.390;2024-02-15T00:34:40;36.50;;;17.40;;
22131;SDS011;11232;51.748;19.390;2024-02-15T00:37:05;35.73;;;16.23;;
22131;SDS011;11232;51.748;19.390;2024-02-15T00:39:31;34.93;;;16.20;;
22131;SDS011;11232;51.748;19.390;2024-02-15T00:41:57;35.73;;;15.27;;
22131;SDS011;11232;51.748;19.390;2024-02-15T00:44:25;35.90;;;16.43;;
22131;SDS011;11232;51.748;19.390;2024-02-15T00:46:51;36.27;;;16.77;;
22131;SDS011;11232;51.748;19.390;2024-02-15T00:49:17;36.37;;;15.03;;
22131;SDS011;11232;51.748;19.390;2024-02-15T00:51:45;32.77;;;15.27;;
22131;SDS011;11232;51.748;19.390;2024-02-15T00:54:11;32.47;;;14.47;;
22131;SDS011;11232;51.748;19.390;2024-02-15T00:56:37;32.70;;;16.10;;
22131;SDS011;11232;51.748;19.390;2024-02-15T00:59:03;35.73;;;15.63;;
22131;SDS011;11232;51.748;19.390;2024-02-15T01:01:31;37.40;;;16.07;;
22131;SDS011;11232;51.748;19.390;2024-02-15T01:03:57;37.13;;;16.53;;
22131;SDS011;11232;51.748;19.390;2024-02-15T01:06:23;35.73;;;17.20;;
22131;SDS011;11232;51.748;19.390;2024-02-15T01:08:48;35.53;;;17.20;;
22131;SDS011;11232;51.748;19.390;2024-02-15T01:11:14;35.07;;;16.40;;
22131;SDS011;11232;51.748;19.390;2024-02-15T01:13:40;36.90;;;17.73;;
22131;SDS011;11232;51.748;19.390;2024-02-15T01:16:06;37.00;;;17.33;;
22131;SDS011;11232;51.748;19.390;2024-02-15T01:18:33;39.30;;;17.33;;
22131;SDS011;11232;51.748;19.390;2024-02-15T01:20:59;40.97;;;18.60;;
22131;SDS011;11232;51.748;19.390;2024-02-15T01:23:25;35.33;;;19.53;;
22131;SDS011;11232;51.748;19.390;2024-02-15T01:25:52;43.13;;;19.93;;
22131;SDS011;11232;51.748;19.390;2024-02-15T01:28:17;42.77;;;19.00;;
22131;SDS011;11232;51.748;19.390;2024-02-15T01:30:43;43.73;;;20.37;;
22131;SDS011;11232;51.748;19.390;2024-02-15T01:33:09;48.80;;;22.50;;
22131;SDS011;11232;51.748;19.390;2024-02-15T01:35:36;45.30;;;21.10;;
22131;SDS011;11232;51.748;19.390;2024-02-15T01:38:02;47.43;;;21.60;;
22131;SDS011;11232;51.748;19.390;2024-02-15T01:40:28;42.03;;;21.70;;
22131;SDS011;11232;51.748;19.390;2024-02-15T01:42:54;55.23;;;22.70;;
22131;SDS011;11232;51.748;19.390;2024-02-15T01:45:20;50.03;;;23.80;;
22131;SDS011;11232;51.748;19.390;2024-02-15T01:47:47;51.87;;;22.30;;
22131;SDS011;11232;51.748;19.390;2024-02-15T01:50:14;50.23;;;23.97;;
22131;SDS011;11232;51.748;19.390;2024-02-15T01:52:41;48.63;;;23.23;;
22131;SDS011;11232;51.748;19.390;2024-02-15T01:55:12;52.37;;;23.33;;
22131;SDS011;11232;51.748;19.390;2024-02-15T01:57:39;54.27;;;23.43;;
22131;SDS011;11232;51.748;19.390;2024-02-15T02:00:09;49.40;;;23.47;;
22131;SDS011;11232;51.748;19.390;2024-02-15T02:02:35;55.70;;;23.17;;
22131;SDS011;11232;51.748;19.390;2024-02-15T02:05:03;51.43;;;24.87;;
22131;SDS011;11232;51.748;19.390;2024-02-15T02:07:28;52.97;;;23.10;;
22131;SDS011;11232;51.748;19.390;2024-02-15T02:09:54;46.63;;;24.30;;
22131;SDS011;11232;51.748;19.390;2024-02-15T02:12:20;53.57;;;24.77;;
22131;SDS011;11232;51.748;19.390;2024-02-15T02:14:46;46.93;;;25.40;;
22131;SDS011;11232;51.748;19.390;2024-02-15T02:17:12;54.17;;;24.60;;
22131;SDS011;11232;51.748;19.390;2024-02-15T02:19:39;58.50;;;25.53;;
22131;SDS011;11232;51.748;19.390;2024-02-15T02:22:05;53.80;;;26.53;;
22131;SDS011;11232;51.748;19.390;2024-02-15T02:24:31;60.17;;;27.63;;
22131;SDS011;11232;51.748;19.390;2024-02-15T02:27:03;49.97;;;26.07;;
22131;SDS011;11232;51.748;19.390;2024-02-15T02:29:30;50.90;;;25.70;;
22131;SDS011;11232;51.748;19.390;2024-02-15T02:31:57;58.03;;;28.67;;
22131;SDS011;11232;51.748;19.390;2024-02-15T02:34:22;51.67;;;27.50;;
22131;SDS011;11232;51.748;19.390;2024-02-15T02:36:49;55.87;;;27.50;;
22131;SDS011;11232;51.748;19.390;2024-02-15T02:39:16;54.27;;;26.90;;
22131;SDS011;11232;51.748;19.390;2024-02-15T02:41:42;60.13;;;28.00;;
22131;SDS011;11232;51.748;19.390;2024-02-15T02:44:08;52.77;;;26.03;;
22131;SDS011;11232;51.748;19.390;2024-02-15T02:46:34;54.13;;;27.37;;
22131;SDS011;11232;51.748;19.390;2024-02-15T02:49:00;54.70;;;27.10;;
22131;SDS011;11232;51.748;19.390;2024-02-15T02:51:26;51.40;;;27.00;;
22131;SDS011;11232;51.748;19.390;2024-02-15T02:53:52;56.80;;;26.70;;
22131;SDS011;11232;51.748;19.390;2024-02-15T02:56:17;51.17;;;27.20;;
22131;SDS011;11232;51.748;19.390;2024-02-15T02:58:43;54.13;;;26.60;;
22131;SDS011;11232;51.748;19.390;2024-02-15T03:01:09;49.00;;;26.27;;
22131;SDS011;11232;51.748;19.390;2024-02-15T03:03:36;51.60;;;26.27;;
22131;SDS011;11232;51.748;19.390;2024-02-15T03:06:03;49.47;;;24.53;;
22131;SDS011;11232;51.748;19.390;2024-02-15T03:08:29;53.50;;;25.47;;
22131;SDS011;11232;51.748;19.390;2024-02-15T03:10:55;46.80;;;24.37;;
22131;SDS011;11232;51.748;19.390;2024-02-15T03:13:21;45.60;;;24.17;;
22131;SDS011;11232;51.748;19.390;2024-02-15T03:15:46;52.63;;;24.63;;
22131;SDS011;11232;51.748;19.390;2024-02-15T03:18:14;47.77;;;25.03;;
22131;SDS011;11232;51.748;19.390;2024-02-15T03:20:41;50.60;;;24.07;;
22131;SDS011;11232;51.748;19.390;2024-02-15T03:23:07;48.93;;;25.50;;
22131;SDS011;11232;51.748;19.390;2024-02-15T03:25:32;48.07;;;24.53;;
22131;SDS011;11232;51.748;19.390;2024-02-15T03:28:00;48.07;;;23.80;;
22131;SDS011;11232;51.748;19.390;2024-02-15T03:30:30;46.33;;;23.87;;
22131;SDS011;11232;51.748;19.390;2024-02-15T03:32:57;50.97;;;23.67;;
22131;SDS011;11232;51.748;19.390;2024-02-15T03:35:26;55.37;;;26.70;;
22131;SDS011;11232;51.748;19.390;2024-02-15T03:37:53;44.80;;;24.53;;
22131;SDS011;11232;51.748;19.390;2024-02-15T03:40:19;49.23;;;24.77;;
22131;SDS011;11232;51.748;19.390;2024-02-15T03:42:46;52.00;;;24.93;;
22131;SDS011;11232;51.748;19.390;2024-02-15T03:45:11;52.80;;;27.13;;
22131;SDS011;11232;51.748;19.390;2024-02-15T03:47:37;56.13;;;24.73;;
22131;SDS011;11232;51.748;19.390;2024-02-15T03:50:07;45.20;;;24.13;;
22131;SDS011;11232;51.748;19.390;2024-02-15T03:52:37;49.20;;;23.53;;
22131;SDS011;11232;51.748;19.390;2024-02-15T03:55:03;45.93;;;23.13;;
22131;SDS011;11232;51.748;19.390;2024-02-15T03:57:30;48.53;;;23.07;;
22131;SDS011;11232;51.748;19.390;2024-02-15T03:59:56;43.27;;;23.33;;
22131;SDS011;11232;51.748;19.390;2024-02-15T04:02:22;46.77;;;23.30;;
22131;SDS011;11232;51.748;19.390;2024-02-15T04:04:51;56.43;;;23.47;;
22131;SDS011;11232;51.748;19.390;2024-02-15T04:07:21;44.53;;;22.53;;
22131;SDS011;11232;51.748;19.390;2024-02-15T04:09:48;45.23;;;22.07;;
22131;SDS011;11232;51.748;19.390;2024-02-15T04:12:13;45.47;;;22.20;;
22131;SDS011;11232;51.748;19.390;2024-02-15T04:14:40;44.90;;;22.37;;
22131;SDS011;11232;51.748;19.390;2024-02-15T04:17:06;50.23;;;22.50;;
22131;SDS011;11232;51.748;19.390;2024-02-15T04:19:32;43.80;;;21.90;;
22131;SDS011;11232;51.748;19.390;2024-02-15T04:21:58;45.57;;;22.47;;
22131;SDS011;11232;51.748;19.390;2024-02-15T04:24:26;46.53;;;23.07;;
22131;SDS011;11232;51.748;19.390;2024-02-15T04:26:51;46.53;;;24.23;;
22131;SDS011;11232;51.748;19.390;2024-02-15T04:29:17;45.03;;;22.47;;
22131;SDS011;11232;51.748;19.390;2024-02-15T04:31:45;46.97;;;23.67;;
22131;SDS011;11232;51.748;19.390;2024-02-15T04:34:14;44.73;;;22.50;;
22131;SDS011;11232;51.748;19.390;2024-02-15T04:36:40;51.10;;;23.03;;
22131;SDS011;11232;51.748;19.390;2024-02-15T04:39:07;49.90;;;24.67;;
22131;SDS011;11232;51.748;19.390;2024-02-15T04:41:35;55.43;;;25.73;;
22131;SDS011;11232;51.748;19.390;2024-02-15T04:44:04;51.80;;;24.33;;
22131;SDS011;11232;51.748;19.390;2024-02-15T04:46:30;50.30;;;26.20;;
22131;SDS011;11232;51.748;19.390;2024-02-15T04:48:56;49.03;;;25.47;;
22131;SDS011;11232;51.748;19.390;2024-02-15T04:51:25;47.93;;;25.53;;
22131;SDS011;11232;51.748;19.390;2024-02-15T04:53:52;50.93;;;25.83;;
22131;SDS011;11232;51.748;19.390;2024-02-15T04:56:18;46.83;;;24.07;;
22131;SDS011;11232;51.748;19.390;2024-02-15T04:58:45;46.53;;;24.07;;
22131;SDS011;11232;51.748;19.390;2024-02-15T05:01:15;46.87;;;23.83;;
22131;SDS011;11232;51.748;19.390;2024-02-15T05:03:45;47.77;;;24.47;;
22131;SDS011;11232;51.748;19.390;2024-02-15T05:06:11;50.83;;;23.63;;
22131;SDS011;11232;51.748;19.390;2024-02-15T05:08:40;46.20;;;23.60;;
22131;SDS011;11232;51.748;19.390;2024-02-15T05:11:09;46.43;;;23.57;;
22131;SDS011;11232;51.748;19.390;2024-02-15T05:13:46;43.67;;;23.53;;
22131;SDS011;11232;51.748;19.390;2024-02-15T05:16:12;45.70;;;21.70;;
22131;SDS011;11232;51.748;19.390;2024-02-15T05:18:37;46.53;;;22.70;;
22131;SDS011;11232;51.748;19.390;2024-02-15T05:21:05;41.37;;;21.27;;
22131;SDS011;11232;51.748;19.390;2024-02-15T05:23:34;40.33;;;21.47;;
22131;SDS011;11232;51.748;19.390;2024-02-15T05:26:01;49.17;;;21.27;;
22131;SDS011;11232;51.748;19.390;2024-02-15T05:28:28;40.23;;;19.87;;
22131;SDS011;11232;51.748;19.390;2024-02-15T05:33:41;42.30;;;20.10;;
22131;SDS011;11232;51.748;19.390;2024-02-15T05:36:19;37.30;;;19.10;;
22131;SDS011;11232;51.748;19.390;2024-02-15T05:38:53;38.00;;;20.03;;
22131;SDS011;11232;51.748;19.390;2024-02-15T05:41:20;38.17;;;19.73;;
22131;SDS011;11232;51.748;19.390;2024-02-15T05:43:46;42.97;;;20.53;;
22131;SDS011;11232;51.748;19.390;2024-02-15T05:46:18;37.77;;;19.97;;
22131;SDS011;11232;51.748;19.390;2024-02-15T05:48:43;40.97;;;20.00;;
22131;SDS011;11232;51.748;19.390;2024-02-15T05:51:09;39.60;;;19.87;;
22131;SDS011;11232;51.748;19.390;2024-02-15T05:53:35;42.90;;;21.33;;
22131;SDS011;11232;51.748;19.390;2024-02-15T05:56:08;42.03;;;21.00;;
22131;SDS011;11232;51.748;19.390;2024-02-15T05:58:37;43.47;;;22.33;;
22131;SDS011;11232;51.748;19.390;2024-02-15T06:01:08;42.90;;;21.20;;
22131;SDS011;11232;51.748;19.390;2024-02-15T06:03:37;37.93;;;20.23;;
22131;SDS011;11232;51.748;19.390;2024-02-15T06:06:03;41.17;;;20.17;;
22131;SDS011;11232;51.748;19.390;2024-02-15T06:08:33;47.33;;;21.17;;
22131;SDS011;11232;51.748;19.390;2024-02-15T06:10:59;41.70;;;21.70;;
22131;SDS011;11232;51.748;19.390;2024-02-15T06:13:25;46.17;;;22.00;;
22131;SDS011;11232;51.748;19.390;2024-02-15T06:15:51;45.33;;;22.30;;
22131;SDS011;11232;51.748;19.390;2024-02-15T06:18:22;41.80;;;22.03;;
22131;SDS011;11232;51.748;19.390;2024-02-15T06:20:53;43.47;;;22.13;;
22131;SDS011;11232;51.748;19.390;2024-02-15T06:23:19;41.57;;;20.53;;
22131;SDS011;11232;51.748;19.390;2024-02-15T06:25:46;43.37;;;21.17;;
22131;SDS011;11232;51.748;19.390;2024-02-15T06:28:14;43.30;;;20.07;;
22131;SDS011;11232;51.748;19.390;2024-02-15T06:31:00;41.43;;;20.80;;
22131;SDS011;11232;51.748;19.390;2024-02-15T06:33:45;46.77;;;22.03;;
22131;SDS011;11232;51.748;19.390;2024-02-15T06:36:28;44.13;;;23.77;;
22131;SDS011;11232;51.748;19.390;2024-02-15T06:39:13;44.67;;;21.33;;
22131;SDS011;11232;51.748;19.390;2024-02-15T06:41:56;44.60;;;21.07;;
22131;SDS011;11232;51.748;19.390;2024-02-15T06:44:22;42.87;;;20.90;;
22131;SDS011;11232;51.748;19.390;2024-02-15T06:46:49;44.37;;;22.10;;
22131;SDS011;11232;51.748;19.390;2024-02-15T06:49:15;40.63;;;22.13;;
22131;SDS011;11232;51.748;19.390;2024-02-15T06:51:41;44.33;;;22.00;;
22131;SDS011;11232;51.748;19.390;2024-02-15T06:54:07;48.37;;;22.43;;
22131;SDS011;11232;51.748;19.390;2024-02-15T06:56:36;41.77;;;21.97;;
22131;SDS011;11232;51.748;19.390;2024-02-15T06:59:05;43.47;;;21.07;;
22131;SDS011;11232;51.748;19.390;2024-02-15T07:01:32;47.87;;;23.73;;
22131;SDS011;11232;51.748;19.390;2024-02-15T07:03:59;48.23;;;24.60;;
22131;SDS011;11232;51.748;19.390;2024-02-15T07:06:25;42.40;;;22.23;;
22131;SDS011;11232;51.748;19.390;2024-02-15T07:08:52;50.03;;;21.93;;
22131;SDS011;11232;51.748;19.390;2024-02-15T07:11:20;37.77;;;20.67;;
22131;SDS011;11232;51.748;19.390;2024-02-15T07:13:46;39.13;;;20.77;;
22131;SDS011;11232;51.748;19.390;2024-02-15T07:16:12;48.87;;;21.87;;
22131;SDS011;11232;51.748;19.390;2024-02-15T07:18:40;38.90;;;20.50;;
22131;SDS011;11232;51.748;19.390;2024-02-15T07:21:06;44.10;;;21.07;;
22131;SDS011;11232;51.748;19.390;2024-02-15T07:23:38;41.03;;;21.23;;
22131;SDS011;11232;51.748;19.390;2024-02-15T07:26:07;43.23;;;21.80;;
22131;SDS011;11232;51.748;19.390;2024-02-15T07:28:33;42.47;;;20.97;;
22131;SDS011;11232;51.748;19.390;2024-02-15T07:30:59;39.73;;;22.03;;
22131;SDS011;11232;51.748;19.390;2024-02-15T07:33:27;46.03;;;21.80;;
22131;SDS011;11232;51.748;19.390;2024-02-15T07:35:53;41.47;;;21.90;;
22131;SDS011;11232;51.748;19.390;2024-02-15T07:38:21;47.60;;;22.70;;
22131;SDS011;11232;51.748;19.390;2024-02-15T07:40:49;48.33;;;22.93;;
22131;SDS011;11232;51.748;19.390;2024-02-15T07:43:15;41.97;;;22.33;;
22131;SDS011;11232;51.748;19.390;2024-02-15T07:45:41;41.77;;;21.73;;
22131;SDS011;11232;51.748;19.390;2024-02-15T07:48:07;46.40;;;21.70;;
22131;SDS011;11232;51.748;19.390;2024-02-15T07:50:33;49.00;;;22.37;;
22131;SDS011;11232;51.748;19.390;2024-02-15T07:52:58;47.53;;;21.70;;
22131;SDS011;11232;51.748;19.390;2024-02-15T07:55:24;39.07;;;21.47;;
22131;SDS011;11232;51.748;19.390;2024-02-15T07:57:50;45.53;;;21.63;;
22131;SDS011;11232;51.748;19.390;2024-02-15T08:00:16;45.93;;;21.00;;
22131;SDS011;11232;51.748;19.390;2024-02-15T08:02:45;44.50;;;21.60;;
22131;SDS011;11232;51.748;19.390;2024-02-15T08:05:11;41.70;;;20.70;;
22131;SDS011;11232;51.748;19.390;2024-02-15T08:07:41;46.90;;;20.73;;
22131;SDS011;11232;51.748;19.390;2024-02-15T08:10:07;35.47;;;18.40;;
22131;SDS011;11232;51.748;19.390;2024-02-15T08:12:38;40.33;;;20.50;;
22131;SDS011;11232;51.748;19.390;2024-02-15T08:15:11;38.33;;;19.07;;
22131;SDS011;11232;51.748;19.390;2024-02-15T08:17:43;41.30;;;20.60;;
22131;SDS011;11232;51.748;19.390;2024-02-15T08:20:13;38.23;;;19.80;;
22131;SDS011;11232;51.748;19.390;2024-02-15T08:22:40;35.47;;;19.40;;
22131;SDS011;11232;51.748;19.390;2024-02-15T08:25:12;34.67;;;17.97;;
22131;SDS011;11232;51.748;19.390;2024-02-15T08:27:40;34.80;;;18.43;;
22131;SDS011;11232;51.748;19.390;2024-02-15T08:30:09;36.40;;;18.80;;
22131;SDS011;11232;51.748;19.390;2024-02-15T08:32:37;35.43;;;19.20;;
22131;SDS011;11232;51.748;19.390;2024-02-15T08:35:04;34.77;;;19.07;;
22131;SDS011;11232;51.748;19.390;2024-02-15T08:37:31;36.00;;;19.27;;
22131;SDS011;11232;51.748;19.390;2024-02-15T08:40:00;35.60;;;18.20;;
22131;SDS011;11232;51.748;19.390;2024-02-15T08:42:26;33.50;;;18.13;;
22131;SDS011;11232;51.748;19.390;2024-02-15T08:44:52;35.53;;;17.87;;
22131;SDS011;11232;51.748;19.390;2024-02-15T08:47:18;46.00;;;26.43;;
22131;SDS011;11232;51.748;19.390;2024-02-15T08:49:43;35.27;;;18.27;;
22131;SDS011;11232;51.748;19.390;2024-02-15T08:52:09;33.17;;;17.07;;
22131;SDS011;11232;51.748;19.390;2024-02-15T08:54:35;34.67;;;17.67;;
22131;SDS011;11232;51.748;19.390;2024-02-15T08:57:04;30.83;;;17.00;;
22131;SDS011;11232;51.748;19.390;2024-02-15T08:59:30;33.33;;;17.13;;
22131;SDS011;11232;51.748;19.390;2024-02-15T09:01:56;33.20;;;18.07;;
22131;SDS011;11232;51.748;19.390;2024-02-15T09:04:22;29.33;;;16.67;;
22131;SDS011;11232;51.748;19.390;2024-02-15T09:06:49;31.50;;;17.47;;
22131;SDS011;11232;51.748;19.390;2024-02-15T09:09:16;32.67;;;18.57;;
22131;SDS011;11232;51.748;19.390;2024-02-15T09:11:41;33.83;;;19.00;;
22131;SDS011;11232;51.748;19.390;2024-02-15T09:14:07;33.87;;;18.33;;
22131;SDS011;11232;51.748;19.390;2024-02-15T09:16:37;38.10;;;19.37;;
22131;SDS011;11232;51.748;19.390;2024-02-15T09:19:04;37.60;;;18.77;;
22131;SDS011;11232;51.748;19.390;2024-02-15T09:21:31;39.00;;;20.53;;
22131;SDS011;11232;51.748;19.390;2024-02-15T09:23:58;35.87;;;19.60;;
22131;SDS011;11232;51.748;19.390;2024-02-15T09:26:24;37.17;;;20.13;;
22131;SDS011;11232;51.748;19.390;2024-02-15T09:28:50;35.93;;;18.87;;
22131;SDS011;11232;51.748;19.390;2024-02-15T09:31:16;32.57;;;19.97;;
22131;SDS011;11232;51.748;19.390;2024-02-15T09:33:41;38.30;;;20.57;;
22131;SDS011;11232;51.748;19.390;2024-02-15T09:36:07;38.47;;;19.60;;
22131;SDS011;11232;51.748;19.390;2024-02-15T09:38:33;37.50;;;19.40;;
22131;SDS011;11232;51.748;19.390;2024-02-15T09:40:58;38.27;;;19.00;;
22131;SDS011;11232;51.748;19.390;2024-02-15T09:43:24;30.47;;;16.00;;
22131;SDS011;11232;51.748;19.390;2024-02-15T09:45:51;33.53;;;16.83;;
22131;SDS011;11232;51.748;19.390;2024-02-15T09:48:20;31.43;;;16.67;;
22131;SDS011;11232;51.748;19.390;2024-02-15T09:50:49;32.43;;;17.33;;
22131;SDS011;11232;51.748;19.390;2024-02-15T09:53:21;28.73;;;16.00;;
22131;SDS011;11232;51.748;19.390;2024-02-15T09:55:50;29.27;;;15.60;;
22131;SDS011;11232;51.748;19.390;2024-02-15T09:58:19;26.90;;;15.63;;
22131;SDS011;11232;51.748;19.390;2024-02-15T10:00:44;27.27;;;16.07;;
22131;SDS011;11232;51.748;19.390;2024-02-15T10:03:11;28.83;;;15.63;;
22131;SDS011;11232;51.748;19.390;2024-02-15T10:05:43;29.97;;;14.93;;
22131;SDS011;11232;51.748;19.390;2024-02-15T10:08:09;28.33;;;13.37;;
22131;SDS011;11232;51.748;19.390;2024-02-15T10:10:36;21.53;;;12.33;;
22131;SDS011;11232;51.748;19.390;2024-02-15T10:13:01;25.43;;;13.37;;
22131;SDS011;11232;51.748;19.390;2024-02-15T10:17:56;20.77;;;13.70;;
22131;SDS011;11232;51.748;19.390;2024-02-15T10:20:29;23.57;;;14.20;;
22131;SDS011;11232;51.748;19.390;2024-02-15T10:25:23;21.33;;;11.57;;
22131;SDS011;11232;51.748;19.390;2024-02-15T10:27:53;19.50;;;10.87;;
22131;SDS011;11232;51.748;19.390;2024-02-15T10:30:27;21.70;;;12.90;;
22131;SDS011;11232;51.748;19.390;2024-02-15T10:32:54;24.90;;;11.83;;
22131;SDS011;11232;51.748;19.390;2024-02-15T10:35:22;20.03;;;11.67;;
22131;SDS011;11232;51.748;19.390;2024-02-15T10:37:48;17.53;;;11.20;;
22131;SDS011;11232;51.748;19.390;2024-02-15T10:40:18;16.83;;;11.07;;
22131;SDS011;11232;51.748;19.390;2024-02-15T10:42:48;20.60;;;11.53;;
22131;SDS011;11232;51.748;19.390;2024-02-15T10:45:16;18.17;;;10.90;;
22131;SDS011;11232;51.748;19.390;2024-02-15T10:47:46;21.40;;;11.30;;
22131;SDS011;11232;51.748;19.390;2024-02-15T10:50:13;20.53;;;11.30;;
22131;SDS011;11232;51.748;19.390;2024-02-15T10:52:43;20.93;;;12.47;;
22131;SDS011;11232;51.748;19.390;2024-02-15T10:55:17;17.13;;;10.03;;
22131;SDS011;11232;51.748;19.390;2024-02-15T10:57:50;18.33;;;10.07;;
22131;SDS011;11232;51.748;19.390;2024-02-15T11:00:17;17.40;;;9.18;;
22131;SDS011;11232;51.748;19.390;2024-02-15T11:05:27;14.75;;;9.27;;
22131;SDS011;11232;51.748;19.390;2024-02-15T11:07:59;15.43;;;9.05;;
22131;SDS011;11232;51.748;19.390;2024-02-15T11:10:32;15.68;;;9.18;;
22131;SDS011;11232;51.748;19.390;2024-02-15T11:12:59;14.48;;;9.25;;
22131;SDS011;11232;51.748;19.390;2024-02-15T11:15:43;13.57;;;8.05;;
22131;SDS011;11232;51.748;19.390;2024-02-15T11:21:17;13.82;;;8.23;;
22131;SDS011;11232;51.748;19.390;2024-02-15T11:23:46;13.27;;;7.93;;
22131;SDS011;11232;51.748;19.390;2024-02-15T11:35:06;12.60;;;6.50;;
22131;SDS011;11232;51.748;19.390;2024-02-15T11:40:24;9.50;;;5.57;;
22131;SDS011;11232;51.748;19.390;2024-02-15T11:43:09;6.17;;;4.50;;
22131;SDS011;11232;51.748;19.390;2024-02-15T11:45:36;8.00;;;5.23;;
22131;SDS011;11232;51.748;19.390;2024-02-15T11:48:09;9.77;;;5.33;;
22131;SDS011;11232;51.748;19.390;2024-02-15T11:50:36;8.63;;;4.73;;
22131;SDS011;11232;51.748;19.390;2024-02-15T11:53:03;8.63;;;4.60;;
22131;SDS011;11232;51.748;19.390;2024-02-15T11:55:36;7.10;;;4.33;;
22131;SDS011;11232;51.748;19.390;2024-02-15T11:58:03;6.03;;;3.80;;
22131;SDS011;11232;51.748;19.390;2024-02-15T12:00:41;4.95;;;3.47;;
22131;SDS011;11232;51.748;19.390;2024-02-15T12:03:25;6.90;;;3.58;;
22131;SDS011;11232;51.748;19.390;2024-02-15T12:06:09;6.28;;;3.92;;
22131;SDS011;11232;51.748;19.390;2024-02-15T12:08:54;7.22;;;4.25;;
22131;SDS011;11232;51.748;19.390;2024-02-15T12:11:39;10.13;;;4.57;;
22131;SDS011;11232;51.748;19.390;2024-02-15T12:14:24;7.70;;;4.28;;
22131;SDS011;11232;51.748;19.390;2024-02-15T12:17:12;11.80;;;5.45;;
22131;SDS011;11232;51.748;19.390;2024-02-15T12:19:59;8.40;;;5.45;;
22131;SDS011;11232;51.748;19.390;2024-02-15T12:22:32;7.28;;;4.38;;
22131;SDS011;11232;51.748;19.390;2024-02-15T12:25:12;9.80;;;5.18;;
22131;SDS011;11232;51.748;19.390;2024-02-15T12:27:40;8.55;;;4.35;;
22131;SDS011;11232;51.748;19.390;2024-02-15T12:30:08;11.30;;;4.70;;
22131;SDS011;11232;51.748;19.390;2024-02-15T12:32:38;6.23;;;4.10;;
22131;SDS011;11232;51.748;19.390;2024-02-15T12:35:11;8.13;;;4.47;;
22131;SDS011;11232;51.748;19.390;2024-02-15T12:37:48;8.17;;;3.90;;
22131;SDS011;11232;51.748;19.390;2024-02-15T12:40:45;4.73;;;3.30;;
22131;SDS011;11232;51.748;19.390;2024-02-15T12:43:11;8.20;;;3.50;;
22131;SDS011;11232;51.748;19.390;2024-02-15T12:45:38;5.40;;;3.30;;
22131;SDS011;11232;51.748;19.390;2024-02-15T12:48:06;7.23;;;3.80;;
22131;SDS011;11232;51.748;19.390;2024-02-15T12:50:33;6.47;;;3.97;;
22131;SDS011;11232;51.748;19.390;2024-02-15T12:52:59;7.03;;;3.93;;
22131;SDS011;11232;51.748;19.390;2024-02-15T12:55:31;7.93;;;3.80;;
22131;SDS011;11232;51.748;19.390;2024-02-15T12:57:59;5.90;;;3.57;;
22131;SDS011;11232;51.748;19.390;2024-02-15T13:00:32;6.87;;;3.77;;
22131;SDS011;11232;51.748;19.390;2024-02-15T13:02:58;7.75;;;3.78;;
22131;SDS011;11232;51.748;19.390;2024-02-15T13:05:28;7.30;;;4.30;;
22131;SDS011;11232;51.748;19.390;2024-02-15T13:07:55;7.17;;;4.27;;
22131;SDS011;11232;51.748;19.390;2024-02-15T13:10:21;8.33;;;4.40;;
22131;SDS011;11232;51.748;19.390;2024-02-15T13:12:47;6.93;;;4.70;;
22131;SDS011;11232;51.748;19.390;2024-02-15T13:15:14;7.77;;;4.40;;
22131;SDS011;11232;51.748;19.390;2024-02-15T13:17:45;7.20;;;4.70;;
22131;SDS011;11232;51.748;19.390;2024-02-15T13:20:19;7.00;;;4.77;;
22131;SDS011;11232;51.748;19.390;2024-02-15T13:22:52;8.40;;;4.97;;
22131;SDS011;11232;51.748;19.390;2024-02-15T13:25:18;6.13;;;4.33;;
22131;SDS011;11232;51.748;19.390;2024-02-15T13:27:46;7.47;;;4.43;;
22131;SDS011;11232;51.748;19.390;2024-02-15T13:30:12;9.30;;;4.37;;
22131;SDS011;11232;51.748;19.390;2024-02-15T13:32:40;10.13;;;4.60;;
22131;SDS011;11232;51.748;19.390;2024-02-15T13:35:07;10.50;;;4.90;;
22131;SDS011;11232;51.748;19.390;2024-02-15T13:37:47;6.20;;;3.80;;
22131;SDS011;11232;51.748;19.390;2024-02-15T13:40:20;6.10;;;3.57;;
22131;SDS011;11232;51.748;19.390;2024-02-15T13:42:50;6.17;;;3.83;;
22131;SDS011;11232;51.748;19.390;2024-02-15T13:45:21;8.23;;;3.80;;
22131;SDS011;11232;51.748;19.390;2024-02-15T13:47:55;8.80;;;4.30;;
22131;SDS011;11232;51.748;19.390;2024-02-15T13:50:21;6.87;;;3.70;;
22131;SDS011;11232;51.748;19.390;2024-02-15T13:52:48;8.07;;;4.20;;
22131;SDS011;11232;51.748;19.390;2024-02-15T13:55:15;6.23;;;3.83;;
22131;SDS011;11232;51.748;19.390;2024-02-15T13:57:46;9.47;;;4.27;;
22131;SDS011;11232;51.748;19.390;2024-02-15T14:00:13;9.50;;;4.13;;
22131;SDS011;11232;51.748;19.390;2024-02-15T14:02:48;8.83;;;4.30;;
22131;SDS011;11232;51.748;19.390;2024-02-15T14:05:15;9.60;;;4.90;;
22131;SDS011;11232;51.748;19.390;2024-02-15T14:07:45;7.30;;;4.47;;
22131;SDS011;11232;51.748;19.390;2024-02-15T14:10:20;7.30;;;4.53;;
22131;SDS011;11232;51.748;19.390;2024-02-15T14:12:55;7.73;;;4.60;;
22131;SDS011;11232;51.748;19.390;2024-02-15T14:15:25;7.63;;;4.93;;
22131;SDS011;11232;51.748;19.390;2024-02-15T14:17:51;12.53;;;4.77;;
22131;SDS011;11232;51.748;19.390;2024-02-15T14:20:17;12.63;;;4.63;;
22131;SDS011;11232;51.748;19.390;2024-02-15T14:22:47;8.40;;;4.57;;
22131;SDS011;11232;51.748;19.390;2024-02-15T14:25:17;8.03;;;4.40;;
22131;SDS011;11232;51.748;19.390;2024-02-15T14:27:44;8.73;;;4.60;;
22131;SDS011;11232;51.748;19.390;2024-02-15T14:30:12;10.90;;;4.90;;
22131;SDS011;11232;51.748;19.390;2024-02-15T14:32:57;9.67;;;4.87;;
22131;SDS011;11232;51.748;19.390;2024-02-15T14:35:32;10.40;;;4.80;;
22131;SDS011;11232;51.748;19.390;2024-02-15T14:38:02;15.83;;;4.83;;
22131;SDS011;11232;51.748;19.390;2024-02-15T14:40:37;10.23;;;5.10;;
22131;SDS011;11232;51.748;19.390;2024-02-15T14:43:04;13.80;;;5.57;;
22131;SDS011;11232;51.748;19.390;2024-02-15T14:45:31;12.23;;;5.97;;